createdAt,value
2023-04-05T00:00:35.001Z,-1.24
2023-04-05T00:03:10.417Z,-1.20
2023-04-05T00:05:40.601Z,-1.23
2023-04-05T00:08:14.299Z,-1.35
2023-04-05T00:10:44.738Z,-1.39
2023-04-05T00:13:15.330Z,-1.41
2023-04-05T00:15:45.720Z,-1.45
2023-04-05T00:18:24.922Z,-1.45
2023-04-05T00:20:55.748Z,-1.46
2023-04-05T00:23:27.128Z,-1.54
2023-04-05T00:25:57.133Z,-1.50
2023-04-05T00:28:28.538Z,-1.38
2023-04-05T00:30:58.810Z,-1.47
2023-04-05T00:33:31.777Z,-1.44
2023-04-05T00:36:11.032Z,-1.51
2023-04-05T00:38:41.803Z,-1.53
2023-04-05T00:41:12.755Z,-1.46
2023-04-05T00:43:43.959Z,-1.60
2023-04-05T00:46:14.257Z,-1.76
2023-04-05T00:48:47.629Z,-1.68
2023-04-05T00:51:18.132Z,-1.52
2023-04-05T00:53:48.849Z,-1.49
2023-04-05T00:56:19.632Z,-1.76
2023-04-05T00:58:52.313Z,-1.82
2023-04-05T01:01:24.563Z,-1.81
2023-04-05T01:04:03.254Z,-1.85
2023-04-05T01:06:48.142Z,-1.86
2023-04-05T01:09:39.419Z,-1.94
2023-04-05T01:12:12.437Z,-1.90
2023-04-05T01:14:50.863Z,-1.97
2023-04-05T01:17:23.688Z,-2.12
2023-04-05T01:19:59.207Z,-2.21
2023-04-05T01:22:50.702Z,-2.25
2023-04-05T01:26:07.581Z,-2.40
2023-04-05T01:29:01.230Z,-2.50
2023-04-05T01:31:44.212Z,-2.54
2023-04-05T01:34:26.034Z,-2.40
2023-04-05T01:36:59.975Z,-2.44
2023-04-05T01:39:31.663Z,-2.45
2023-04-05T01:42:03.130Z,-2.56
2023-04-05T01:44:33.576Z,-2.54
2023-04-05T01:47:06.270Z,-2.59
2023-04-05T01:49:36.505Z,-2.65
2023-04-05T01:52:06.565Z,-2.70
2023-04-05T01:54:36.788Z,-2.85
2023-04-05T01:57:08.097Z,-2.92
2023-04-05T01:59:38.388Z,-2.95
2023-04-05T02:02:11.287Z,-2.92
2023-04-05T02:04:42.552Z,-2.80
2023-04-05T02:07:13.401Z,-2.81
2023-04-05T02:09:44.596Z,-2.77
2023-04-05T02:12:16.237Z,-2.73
2023-04-05T02:14:47.360Z,-2.68
2023-04-05T02:17:22.082Z,-2.65
2023-04-05T02:19:53.372Z,-2.74
2023-04-05T02:22:23.712Z,-2.82
2023-04-05T02:24:54.310Z,-2.78
2023-04-05T02:27:24.380Z,-2.82
2023-04-05T02:29:57.880Z,-2.89
2023-04-05T02:32:32.214Z,-2.95
2023-04-05T02:35:02.894Z,-3.04
2023-04-05T02:37:32.926Z,-3.07
2023-04-05T02:40:05.903Z,-2.93
2023-04-05T02:42:36.686Z,-2.97
2023-04-05T02:45:08.603Z,-2.89
2023-04-05T02:47:42.048Z,-2.89
2023-04-05T02:50:12.272Z,-2.99
2023-04-05T02:52:46.654Z,-3.03
2023-04-05T02:55:17.011Z,-3.03
2023-04-05T02:57:48.214Z,-3.04
2023-04-05T03:00:44.426Z,-3.19
2023-04-05T03:03:17.838Z,-3.13
2023-04-05T03:05:49.104Z,-3.25
2023-04-05T03:08:23.994Z,-3.42
2023-04-05T03:11:03.338Z,-3.39
2023-04-05T03:13:33.592Z,-3.40
2023-04-05T03:16:06.010Z,-3.45
2023-04-05T03:18:39.272Z,-3.48
2023-04-05T03:21:12.520Z,-3.54
2023-04-05T03:23:53.749Z,-3.50
2023-04-05T03:26:30.036Z,-3.57
2023-04-05T03:29:00.345Z,-3.68
2023-04-05T03:31:35.533Z,-3.51
2023-04-05T03:34:12.835Z,-3.59
2023-04-05T03:36:50.139Z,-3.56
2023-04-05T03:39:32.806Z,-3.54
2023-04-05T03:42:03.015Z,-3.45
2023-04-05T03:44:33.248Z,-3.41
2023-04-05T03:47:03.561Z,-3.37
2023-04-05T03:49:37.647Z,-3.40
2023-04-05T03:52:08.728Z,-3.55
2023-04-05T03:54:41.368Z,-3.61
2023-04-05T03:57:12.150Z,-3.72
2023-04-05T03:59:44.297Z,-3.82
2023-04-05T04:02:14.625Z,-3.80
2023-04-05T04:04:47.660Z,-3.53
2023-04-05T04:07:18.737Z,-3.49
2023-04-05T04:09:49.001Z,-3.52
2023-04-05T04:12:19.326Z,-3.38
2023-04-05T04:14:58.985Z,-3.53
2023-04-05T04:18:02.237Z,-3.55
2023-04-05T04:20:49.451Z,-3.76
2023-04-05T04:23:33.666Z,-3.66
2023-04-05T04:26:29.471Z,-3.79
2023-04-05T04:29:34.055Z,-3.92
2023-04-05T04:32:27.073Z,-4.05
2023-04-05T04:35:20.908Z,-4.09
2023-04-05T04:38:18.908Z,-4.13
2023-04-05T04:41:09.575Z,-4.24
2023-04-05T04:43:58.950Z,-4.24
2023-04-05T04:46:49.188Z,-4.21
2023-04-05T04:49:40.403Z,-4.03
2023-04-05T04:52:10.931Z,-4.08
2023-04-05T04:54:47.499Z,-4.16
2023-04-05T04:57:17.910Z,-4.20
2023-04-05T04:59:47.996Z,-4.21
2023-04-05T05:02:18.401Z,-4.21
2023-04-05T05:04:48.873Z,-4.20
2023-04-05T05:07:19.080Z,-4.31
2023-04-05T05:09:52.679Z,-4.31
2023-04-05T05:12:25.123Z,-4.29
2023-04-05T05:14:55.099Z,-4.24
2023-04-05T05:17:27.467Z,-4.26
2023-04-05T05:20:00.685Z,-4.18
2023-04-05T05:22:31.651Z,-4.09
2023-04-05T05:25:04.400Z,-4.08
2023-04-05T05:27:34.635Z,-3.95
2023-04-05T05:30:04.989Z,-3.83
2023-04-05T05:32:35.289Z,-3.79
2023-04-05T05:35:12.363Z,-3.65
2023-04-05T05:37:42.987Z,-3.58
2023-04-05T05:40:16.556Z,-3.20
2023-04-05T05:42:46.531Z,-2.90
2023-04-05T05:45:16.651Z,-2.77
2023-04-05T05:47:46.869Z,-2.59
2023-04-05T05:50:17.389Z,-2.00
2023-04-05T05:52:47.356Z,-1.10
2023-04-05T05:55:19.996Z,0.08
2023-04-05T05:57:50.170Z,1.16
2023-04-05T06:00:21.967Z,2.18
2023-04-05T06:02:53.259Z,3.02
2023-04-05T06:05:23.299Z,3.75
2023-04-05T06:07:53.437Z,4.39
2023-04-05T06:10:27.309Z,4.96
2023-04-05T06:12:57.642Z,5.49
2023-04-05T06:15:28.046Z,5.71
2023-04-05T06:17:58.231Z,6.12
2023-04-05T06:20:28.243Z,6.24
2023-04-05T06:22:58.437Z,6.34
2023-04-05T06:25:31.406Z,6.46
2023-04-05T06:28:01.737Z,6.66
2023-04-05T06:30:32.223Z,7.22
2023-04-05T06:33:03.129Z,7.15
2023-04-05T06:35:33.689Z,7.13
2023-04-05T06:38:04.115Z,7.14
2023-04-05T06:40:36.752Z,7.34
2023-04-05T06:43:06.837Z,7.40
2023-04-05T06:45:36.915Z,7.61
2023-04-05T06:48:07.506Z,8.03
2023-04-05T06:50:37.725Z,8.63
2023-04-05T06:53:08.021Z,9.13
2023-04-05T06:55:40.995Z,10.04
2023-04-05T06:58:11.076Z,10.39
2023-04-05T07:00:41.407Z,10.63
2023-04-05T07:03:11.734Z,10.51
2023-04-05T07:05:41.826Z,10.84
2023-04-05T07:08:11.801Z,11.02
2023-04-05T07:10:45.659Z,10.71
2023-04-05T07:13:15.960Z,10.06
2023-04-05T07:15:46.123Z,9.72
2023-04-05T07:18:17.946Z,9.65
2023-04-05T07:20:50.818Z,10.09
2023-04-05T07:23:23.164Z,9.85
2023-04-05T07:25:56.167Z,10.18
2023-04-05T07:28:26.427Z,10.56
2023-04-05T07:30:56.706Z,10.26
2023-04-05T07:33:27.976Z,9.40
2023-04-05T07:35:58.750Z,8.90
2023-04-05T07:38:30.982Z,9.29
2023-04-05T07:41:03.723Z,10.32
2023-04-05T07:43:33.846Z,11.16
2023-04-05T07:46:07.759Z,11.54
2023-04-05T07:48:37.879Z,11.82
2023-04-05T07:51:10.126Z,12.41
2023-04-05T07:53:40.588Z,13.37
2023-04-05T07:56:14.937Z,14.64
2023-04-05T07:58:45.160Z,15.24
2023-04-05T08:01:15.284Z,15.68
2023-04-05T08:03:45.361Z,15.00
2023-04-05T08:06:18.144Z,14.63
2023-04-05T08:08:48.768Z,14.97
2023-04-05T08:11:21.678Z,15.48
2023-04-05T08:13:53.634Z,15.65
2023-04-05T08:16:24.073Z,14.62
2023-04-05T08:18:54.612Z,14.98
2023-04-05T08:21:25.733Z,14.26
2023-04-05T08:23:56.294Z,14.74
2023-04-05T08:26:28.848Z,14.35
2023-04-05T08:28:59.471Z,14.44
2023-04-05T08:31:30.189Z,14.20
2023-04-05T08:34:00.175Z,14.83
2023-04-05T08:36:30.310Z,14.85
2023-04-05T08:39:00.481Z,14.83
2023-04-05T08:41:39.128Z,15.73
2023-04-05T08:44:13.754Z,16.31
2023-04-05T08:46:46.551Z,16.15
2023-04-05T08:49:16.605Z,15.63
2023-04-05T08:51:46.615Z,17.16
2023-04-05T08:54:16.574Z,16.88
2023-04-05T08:56:51.885Z,16.64
2023-04-05T08:59:23.313Z,15.50
2023-04-05T09:01:54.626Z,15.00
2023-04-05T09:04:27.467Z,16.13
2023-04-05T09:07:00.553Z,17.00
2023-04-05T09:09:35.918Z,16.94
2023-04-05T09:12:12.151Z,17.47
2023-04-05T09:14:43.180Z,16.23
2023-04-05T09:17:13.560Z,17.15
2023-04-05T09:19:43.880Z,17.07
2023-04-05T09:22:18.806Z,17.98
2023-04-05T09:24:50.234Z,18.77
2023-04-05T09:27:26.580Z,18.01
2023-04-05T09:30:02.169Z,18.44
2023-04-05T09:32:32.713Z,19.00
2023-04-05T09:35:05.997Z,17.33
2023-04-05T09:37:38.278Z,16.90
2023-04-05T09:40:10.505Z,16.16
2023-04-05T09:42:49.264Z,16.93
2023-04-05T09:45:20.960Z,18.31
2023-04-05T09:48:01.075Z,18.30
2023-04-05T09:50:31.172Z,19.19
2023-04-05T09:53:11.276Z,19.79
2023-04-05T09:55:42.753Z,19.19
2023-04-05T09:58:22.277Z,17.67
2023-04-05T10:01:06.697Z,17.74
2023-04-05T10:03:50.354Z,18.09
2023-04-05T10:06:23.754Z,18.36
2023-04-05T10:08:55.645Z,18.46
2023-04-05T10:11:26.799Z,17.39
2023-04-05T10:14:00.577Z,17.81
2023-04-05T10:16:33.682Z,19.02
2023-04-05T10:19:06.114Z,17.61
2023-04-05T10:21:39.120Z,18.03
2023-04-05T10:24:21.359Z,15.19
2023-04-05T10:27:03.035Z,13.58
2023-04-05T10:29:47.257Z,13.85
2023-04-05T10:32:21.921Z,14.69
2023-04-05T10:35:03.846Z,16.36
2023-04-05T10:37:44.389Z,13.92
2023-04-05T10:40:15.944Z,14.40
2023-04-05T10:42:46.781Z,14.98
2023-04-05T10:45:23.385Z,15.61
2023-04-05T10:47:58.565Z,14.29
2023-04-05T10:50:29.407Z,15.46
2023-04-05T10:53:00.663Z,14.95
2023-04-05T10:55:31.712Z,15.49
2023-04-05T10:58:02.453Z,15.93
2023-04-05T11:00:36.348Z,15.21
2023-04-05T11:03:06.824Z,15.25
2023-04-05T11:05:38.550Z,14.47
2023-04-05T11:08:10.288Z,14.34
2023-04-05T11:10:42.286Z,12.96
2023-04-05T11:13:13.672Z,10.83
2023-04-05T11:15:46.674Z,11.00
2023-04-05T11:18:25.039Z,11.61
2023-04-05T11:20:56.857Z,11.85
2023-04-05T11:23:28.129Z,12.51
2023-04-05T11:26:00.209Z,12.81
2023-04-05T11:28:37.913Z,13.28
2023-04-05T11:31:19.791Z,14.85
2023-04-05T11:34:10.455Z,14.95
2023-04-05T11:36:44.589Z,14.92
2023-04-05T11:39:30.606Z,17.16
2023-04-05T11:42:05.858Z,15.59
2023-04-05T11:44:50.105Z,15.84
2023-04-05T11:47:23.799Z,15.43
2023-04-05T11:49:54.693Z,15.61
2023-04-05T11:52:25.032Z,16.43
2023-04-05T11:54:55.445Z,17.23
2023-04-05T11:57:26.781Z,17.53
2023-04-05T11:59:57.364Z,17.75
2023-04-05T12:02:30.312Z,17.90
2023-04-05T12:05:01.196Z,16.92
2023-04-05T12:07:37.169Z,16.49
2023-04-05T12:10:11.950Z,16.20
2023-04-05T12:12:44.048Z,16.20
2023-04-05T12:15:17.858Z,16.08
2023-04-05T12:17:54.890Z,16.15
2023-04-05T12:20:27.076Z,16.26
2023-04-05T12:22:59.134Z,17.14
2023-04-05T12:25:30.039Z,17.61
2023-04-05T12:28:00.128Z,18.62
2023-04-05T12:30:36.567Z,18.34
2023-04-05T12:33:13.157Z,17.07
2023-04-05T12:35:43.647Z,15.17
2023-04-05T12:38:17.873Z,14.85
2023-04-05T12:40:48.454Z,13.74
2023-04-05T12:43:20.147Z,12.65
2023-04-05T12:45:53.383Z,11.99
2023-04-05T12:48:27.747Z,11.32
2023-04-05T12:50:57.756Z,10.39
2023-04-05T12:53:30.004Z,10.52
2023-04-05T12:56:02.055Z,10.28
2023-04-05T12:58:37.443Z,9.95
2023-04-05T13:01:09.089Z,10.12
2023-04-05T13:03:41.860Z,10.03
2023-04-05T13:06:12.503Z,10.23
2023-04-05T13:08:42.535Z,10.49
2023-04-05T13:11:12.467Z,11.93
2023-04-05T13:13:42.477Z,13.85
2023-04-05T13:16:14.652Z,15.74
2023-04-05T13:18:47.402Z,15.95
2023-04-05T13:21:17.810Z,16.29
2023-04-05T13:23:47.902Z,18.37
2023-04-05T13:26:17.865Z,19.69
2023-04-05T13:28:47.817Z,17.48
2023-04-05T13:31:18.031Z,15.73
2023-04-05T13:33:51.007Z,15.75
2023-04-05T13:36:21.216Z,14.17
2023-04-05T13:38:51.376Z,14.52
2023-04-05T13:41:21.530Z,14.32
2023-04-05T13:43:51.585Z,14.10
2023-04-05T13:46:21.634Z,13.98
2023-04-05T13:48:54.328Z,13.37
2023-04-05T13:51:24.909Z,15.01
2023-04-05T13:53:54.848Z,14.98
2023-04-05T13:56:25.166Z,15.59
2023-04-05T13:58:55.375Z,16.41
2023-04-05T14:01:25.593Z,17.53
2023-04-05T14:03:58.578Z,18.74
2023-04-05T14:06:28.829Z,18.64
2023-04-05T14:08:58.922Z,19.04
2023-04-05T14:11:29.572Z,18.71
2023-04-05T14:13:59.731Z,13.36
2023-04-05T14:16:30.002Z,13.35
2023-04-05T14:19:02.844Z,14.88
2023-04-05T14:21:33.488Z,15.69
2023-04-05T14:24:03.556Z,15.94
2023-04-05T14:26:33.564Z,15.39
2023-04-05T14:29:03.781Z,14.09
2023-04-05T14:31:33.892Z,11.66
2023-04-05T14:34:06.555Z,10.72
2023-04-05T14:36:36.572Z,10.66
2023-04-05T14:39:06.713Z,11.10
2023-04-05T14:41:37.757Z,10.98
2023-04-05T14:44:09.453Z,10.61
2023-04-05T14:46:39.601Z,10.70
2023-04-05T14:49:12.307Z,11.22
2023-04-05T14:51:42.545Z,11.14
2023-04-05T14:54:13.139Z,10.74
2023-04-05T14:56:43.061Z,12.10
2023-04-05T14:59:16.623Z,13.10
2023-04-05T15:01:47.563Z,15.16
2023-04-05T15:04:20.744Z,16.65
2023-04-05T15:06:50.964Z,15.92
2023-04-05T15:09:21.048Z,15.28
2023-04-05T15:11:51.050Z,17.38
2023-04-05T15:14:29.014Z,17.45
2023-04-05T15:17:01.511Z,16.80
2023-04-05T15:19:35.775Z,15.54
2023-04-05T15:22:06.109Z,14.08
2023-04-05T15:24:37.511Z,14.32
2023-04-05T15:27:07.811Z,14.79
2023-04-05T15:29:37.835Z,16.55
2023-04-05T15:32:10.263Z,18.67
2023-04-05T15:34:43.536Z,19.95
2023-04-05T15:37:13.653Z,20.13
2023-04-05T15:39:43.671Z,20.43
2023-04-05T15:42:13.742Z,19.95
2023-04-05T15:44:44.280Z,20.79
2023-04-05T15:47:14.410Z,18.32
2023-04-05T15:49:48.749Z,16.97
2023-04-05T15:52:18.705Z,16.25
2023-04-05T15:54:48.885Z,14.53
2023-04-05T15:57:19.936Z,14.40
2023-04-05T15:59:50.090Z,14.40
2023-04-05T16:02:20.689Z,13.75
2023-04-05T16:04:53.318Z,14.13
2023-04-05T16:07:23.507Z,13.79
2023-04-05T16:09:53.503Z,13.10
2023-04-05T16:12:23.719Z,13.31
2023-04-05T16:14:53.654Z,13.98
2023-04-05T16:17:25.644Z,13.52
2023-04-05T16:19:58.466Z,13.60
2023-04-05T16:22:28.980Z,12.83
2023-04-05T16:24:58.951Z,12.09
2023-04-05T16:27:29.127Z,12.12
2023-04-05T16:29:59.198Z,11.89
2023-04-05T16:32:29.361Z,11.07
2023-04-05T16:35:01.870Z,10.98
2023-04-05T16:37:32.119Z,9.77
2023-04-05T16:40:03.081Z,9.62
2023-04-05T16:42:33.163Z,9.50
2023-04-05T16:45:03.488Z,9.06
2023-04-05T16:47:33.774Z,8.83
2023-04-05T16:50:07.758Z,8.86
2023-04-05T16:52:37.856Z,8.90
2023-04-05T16:55:08.854Z,8.81
2023-04-05T16:57:39.468Z,8.84
2023-04-05T17:00:11.022Z,8.69
2023-04-05T17:02:41.186Z,8.45
2023-04-05T17:05:14.526Z,8.33
2023-04-05T17:07:44.474Z,8.19
2023-04-05T17:10:14.734Z,8.11
2023-04-05T17:12:45.733Z,8.12
2023-04-05T17:15:16.677Z,8.14
2023-04-05T17:17:46.955Z,7.98
2023-04-05T17:20:20.337Z,7.66
2023-04-05T17:22:51.750Z,7.50
2023-04-05T17:25:22.312Z,7.44
2023-04-05T17:27:52.647Z,7.22
2023-04-05T17:30:22.938Z,7.13
2023-04-05T17:32:53.063Z,7.03
2023-04-05T17:35:25.755Z,6.92
2023-04-05T17:37:55.867Z,6.71
2023-04-05T17:40:26.036Z,6.48
2023-04-05T17:42:56.149Z,6.55
2023-04-05T17:45:27.885Z,6.42
2023-04-05T17:47:58.339Z,6.29
2023-04-05T17:50:31.570Z,6.23
2023-04-05T17:53:01.672Z,6.00
2023-04-05T17:55:33.435Z,5.99
2023-04-05T17:58:03.781Z,5.77
2023-04-05T18:00:33.764Z,5.65
2023-04-05T18:03:07.592Z,5.51
2023-04-05T18:05:42.155Z,5.31
2023-04-05T18:08:12.220Z,5.31
2023-04-05T18:10:42.179Z,5.25
2023-04-05T18:13:12.203Z,5.29
2023-04-05T18:15:42.931Z,5.07
2023-04-05T18:18:13.301Z,4.88
2023-04-05T18:20:46.191Z,4.83
2023-04-05T18:23:16.620Z,4.86
2023-04-05T18:25:47.247Z,4.73
2023-04-05T18:28:22.790Z,4.59
2023-04-05T18:30:53.687Z,4.60
2023-04-05T18:33:25.066Z,4.55
2023-04-05T18:35:57.873Z,4.54
2023-04-05T18:38:28.137Z,4.40
2023-04-05T18:41:04.431Z,4.28
2023-04-05T18:43:34.405Z,4.17
2023-04-05T18:46:04.418Z,3.98
2023-04-05T18:48:38.870Z,3.86
2023-04-05T18:51:11.487Z,3.92
2023-04-05T18:53:47.090Z,3.95
2023-04-05T18:56:17.154Z,3.71
2023-04-05T18:58:47.531Z,3.53
2023-04-05T19:01:19.171Z,3.59
2023-04-05T19:03:51.193Z,3.74
2023-04-05T19:06:25.072Z,3.80
2023-04-05T19:08:55.166Z,3.68
2023-04-05T19:11:26.144Z,3.55
2023-04-05T19:13:56.827Z,3.70
2023-04-05T19:16:27.294Z,3.63
2023-04-05T19:18:57.546Z,3.50
2023-04-05T19:21:30.151Z,3.34
2023-04-05T19:24:00.532Z,3.46
2023-04-05T19:26:32.361Z,3.40
2023-04-05T19:29:02.835Z,3.45
2023-04-05T19:31:33.308Z,3.36
2023-04-05T19:34:03.537Z,3.16
2023-04-05T19:36:37.638Z,3.05
2023-04-05T19:39:09.866Z,3.08
2023-04-05T19:41:40.147Z,2.99
2023-04-05T19:44:13.553Z,2.90
2023-04-05T19:46:44.267Z,2.89
2023-04-05T19:49:17.152Z,2.82
2023-04-05T19:51:50.153Z,2.87
2023-04-05T19:54:24.345Z,2.81
2023-04-05T19:56:54.701Z,2.59
2023-04-05T19:59:31.706Z,2.80
2023-04-05T20:02:02.318Z,2.71
2023-04-05T20:04:39.106Z,2.72
2023-04-05T20:07:13.427Z,2.65
2023-04-05T20:09:44.198Z,2.49
2023-04-05T20:12:16.287Z,2.36
2023-04-05T20:14:49.263Z,2.33
2023-04-05T20:17:19.412Z,2.28
2023-04-05T20:20:01.023Z,2.16
2023-04-05T20:22:35.646Z,2.22
2023-04-05T20:25:34.777Z,1.96
2023-04-05T20:28:05.252Z,1.86
2023-04-05T20:30:35.795Z,1.80
2023-04-05T20:33:09.011Z,1.73
2023-04-05T20:35:39.975Z,1.80
2023-04-05T20:38:12.884Z,1.71
2023-04-05T20:40:43.909Z,1.65
2023-04-05T20:43:14.749Z,1.51
2023-04-05T20:45:44.852Z,1.43
2023-04-05T20:48:14.822Z,1.34
2023-04-05T20:50:44.884Z,1.86
2023-04-05T20:53:17.410Z,1.86
2023-04-05T20:55:48.425Z,1.74
2023-04-05T20:58:19.210Z,1.63
2023-04-05T21:00:51.792Z,1.67
2023-04-05T21:03:22.047Z,1.88
2023-04-05T21:05:52.478Z,1.70
2023-04-05T21:08:25.128Z,1.38
2023-04-05T21:10:55.495Z,1.26
2023-04-05T21:13:25.685Z,1.25
2023-04-05T21:15:56.367Z,1.18
2023-04-05T21:18:27.433Z,1.06
2023-04-05T21:21:00.854Z,1.09
2023-04-05T21:23:34.655Z,1.09
2023-04-05T21:26:05.993Z,1.14
2023-04-05T21:28:36.245Z,1.19
2023-04-05T21:31:06.788Z,1.23
2023-04-05T21:33:37.165Z,1.22
2023-04-05T21:36:08.065Z,1.13
2023-04-05T21:38:40.859Z,1.10
2023-04-05T21:41:11.129Z,0.95
2023-04-05T21:43:41.162Z,0.76
2023-04-05T21:46:12.133Z,0.68
2023-04-05T21:48:42.339Z,0.55
2023-04-05T21:51:12.574Z,0.80
2023-04-05T21:53:45.338Z,0.65
2023-04-05T21:56:16.198Z,0.54
2023-04-05T21:58:46.353Z,0.49
2023-04-05T22:01:16.665Z,0.43
2023-04-05T22:03:47.170Z,0.34
2023-04-05T22:06:20.616Z,0.49
2023-04-05T22:08:55.237Z,0.62
2023-04-05T22:11:26.848Z,0.56
2023-04-05T22:13:59.572Z,0.32
2023-04-05T22:16:29.748Z,0.23
2023-04-05T22:19:00.174Z,0.14
2023-04-05T22:21:30.529Z,0.04
2023-04-05T22:24:04.364Z,0.03
2023-04-05T22:26:34.577Z,0.08
2023-04-05T22:29:04.955Z,-0.17
2023-04-05T22:31:35.447Z,-0.25
2023-04-05T22:34:05.915Z,-0.25
2023-04-05T22:36:36.273Z,-0.07
2023-04-05T22:39:09.393Z,-0.37
2023-04-05T22:41:40.011Z,-0.54
2023-04-05T22:44:10.513Z,-0.60
2023-04-05T22:46:41.031Z,-0.55
2023-04-05T22:49:11.306Z,-0.60
2023-04-05T22:51:41.461Z,-0.75
2023-04-05T22:54:14.494Z,-0.21
2023-04-05T22:56:45.170Z,0.07
2023-04-05T22:59:15.235Z,-0.16
2023-04-05T23:01:45.600Z,-0.35
2023-04-05T23:04:16.129Z,-0.46
2023-04-05T23:06:46.463Z,-0.52
2023-04-05T23:09:21.588Z,-0.53
2023-04-05T23:11:54.148Z,-0.59
2023-04-05T23:14:24.842Z,-0.76
2023-04-05T23:16:55.569Z,-0.80
2023-04-05T23:19:25.818Z,-0.91
2023-04-05T23:21:57.168Z,-0.81
2023-04-05T23:24:32.981Z,-0.90
2023-04-05T23:27:03.280Z,-0.84
2023-04-05T23:29:33.434Z,-0.76
2023-04-05T23:32:03.481Z,-0.92
2023-04-05T23:34:33.838Z,-1.01
2023-04-05T23:37:04.034Z,-1.22
2023-04-05T23:39:36.658Z,-1.24
2023-04-05T23:42:07.692Z,-1.27
2023-04-05T23:44:38.984Z,-1.34
2023-04-05T23:47:09.026Z,-1.27
2023-04-05T23:49:39.375Z,-1.13
2023-04-05T23:52:11.728Z,-1.33
2023-04-05T23:54:44.450Z,-1.44
2023-04-05T23:57:14.480Z,-1.42
2023-04-05T23:59:44.460Z,-1.33
